Thunder radar more information blitzortung!


Radar de pluja more information rain snow radar


Visita la nostra xarxa de llocs de meteo:

Template documentation
and downloads

And another site



No particular awareness of the weather is required.    There are no Weather-warnings

Pagina Historial Weather Underground text

Diari Resum Juliol 1, 2017 Unitats:  Mètric    Imperial   Tant
« Previous Dia
SegĂźent Dia »
Diari Setmana Mensual Anual Personalitzada
  Maxima: Minima: Media:
Temperatura: -17.8 °C -9.3 °C -6.2 °C
Punt de rosada: -17.8 °C -15.5 °C -13.7 °C
Humitat: Humidity % 30 % 42 %
Wind Speed: 0 km/h 0 km/h 13 km/h
RĂ fegues de vent: 0 km/h - -
Vent:- - ESE
Pression baro: 0 hPa 34395 hPa -
Precipitacions: 0 mm    
Historical Graphs
 
 
Dades de taula per Juliol 1, 2017
Temps Temperatura Punt de rosada Pression baro Vent Wind Speed RĂ fegues de vent Humitat Rainfall Rate (Hourly)
-17.8 °C -17.8 °C 0 hPa Calm     Humidity % 0 mm
00:04 -7.1 °C -14.4 °C 34395 hPa NNE 11.9 km/h 11.9 km/h 42 % 0 mm
00:05 -8.7 °C -15.1 °C 34395 hPa WSW 2.6 km/h 7.7 km/h 47 % 0 mm
00:15 -8.8 °C -15.1 °C 34395 hPa SW 2.6 km/h 7.7 km/h 47 % 0 mm
00:25 -8.8 °C -15.1 °C 34395 hPa WSW 2.6 km/h 5.1 km/h 47 % 0 mm
00:35 -8.9 °C -15.2 °C 34428.8 hPa WSW 2.6 km/h 5.1 km/h 47 % 0 mm
00:45 -9 °C -15.3 °C 34428.8 hPa WSW 7.7 km/h 10.3 km/h 47 % 0 mm
00:55 -9 °C -15.3 °C 34428.8 hPa WSW 7.7 km/h 10.3 km/h 47 % 0 mm
01:05 -9.1 °C -15.3 °C 34462.7 hPa WSW 7.7 km/h 10.3 km/h 47 % 0 mm
01:15 -9.1 °C -15.4 °C 34462.7 hPa WSW 5.1 km/h 7.7 km/h 47 % 0 mm
01:25 -9.1 °C -15.4 °C 34462.7 hPa SW 2.6 km/h 5.1 km/h 47 % 0 mm
01:35 -9.1 °C -15.3 °C 34462.7 hPa WSW 5.1 km/h 15.6 km/h 47 % 0 mm
01:45 -9.1 °C -15.3 °C 34462.7 hPa West 7.7 km/h 10.3 km/h 47 % 0 mm
01:55 -9.1 °C -15.4 °C 34428.8 hPa WSW 7.7 km/h 15.6 km/h 47 % 0 mm
02:05 -9.1 °C -15.4 °C 34428.8 hPa WSW 15.6 km/h 15.6 km/h 47 % 0 mm
02:15 -9.2 °C -15.4 °C 34428.8 hPa WSW 7.7 km/h 18.2 km/h 47 % 0 mm
02:25 -9.2 °C -15.3 °C 34462.7 hPa WSW 2.6 km/h 10.3 km/h 48 % 0 mm
02:35 -9.2 °C -15.5 °C 34428.8 hPa WSW 7.7 km/h 7.7 km/h 47 % 0 mm
02:45 -9.3 °C -15.4 °C 34428.8 hPa WSW 5.1 km/h 10.3 km/h 48 % 0 mm
02:55 -9.3 °C -15.4 °C 34462.7 hPa WSW 5.1 km/h 7.7 km/h 48 % 0 mm
03:05 -9.3 °C -15.4 °C 34428.8 hPa West 2.6 km/h 10.3 km/h 48 % 0 mm
03:15 -9.3 °C -15.2 °C 34428.8 hPa WNW 2.6 km/h 7.7 km/h 49 % 0 mm
03:25 -9.2 °C -15.1 °C 34462.7 hPa NW 7.7 km/h 7.7 km/h 49 % 0 mm
03:35 -8.9 °C -14.9 °C 34462.7 hPa WNW 5.1 km/h 10.3 km/h 49 % 0 mm
03:45 -8.8 °C -14.8 °C 34462.7 hPa West 5.1 km/h 7.7 km/h 49 % 0 mm
03:55 -8.7 °C -14.6 °C 34462.7 hPa West 5.1 km/h 10.3 km/h 49 % 0 mm
04:05 -8.3 °C -14.5 °C 34462.7 hPa West 5.1 km/h 5.1 km/h 48 % 0 mm
04:15 -8.1 °C -14.3 °C 34462.7 hPa West 7.7 km/h 7.7 km/h 48 % 0 mm
04:25 -7.8 °C -14.2 °C 34496.6 hPa WNW 5.1 km/h 7.7 km/h 47 % 0 mm
04:35 -7.4 °C -13.8 °C 34462.7 hPa WNW 5.1 km/h 10.3 km/h 47 % 0 mm
04:45 -7.4 °C -13.8 °C 34462.7 hPa WSW 5.1 km/h 10.3 km/h 47 % 0 mm
04:55 -7.3 °C -13.9 °C 34462.7 hPa WSW 7.7 km/h 7.7 km/h 46 % 0 mm
09:57 -7.1 °C -13.9 °C 34462.7 hPa West 11.9 km/h 11.9 km/h 45 % 0 mm
10:02 -7.1 °C -13.9 °C 34462.7 hPa WSW 17.9 km/h 17.9 km/h 45 % 0 mm
10:03 -7.1 °C -13.9 °C 34462.7 hPa WSW 17.9 km/h 17.9 km/h 45 % 0 mm
10:08 -7 °C -13.8 °C 34462.7 hPa WSW 11.9 km/h 11.9 km/h 45 % 0 mm
10:13 -7.1 °C -13.8 °C 34462.7 hPa NE 15 km/h 15 km/h 45 % 0 mm
10:18 -6.9 °C -13.7 °C 34462.7 hPa ENE 15 km/h 15 km/h 45 % 0 mm
10:23 -7.1 °C -13.9 °C 34462.7 hPa NNE 17.9 km/h 17.9 km/h 45 % 0 mm
10:28 -6.9 °C -13.8 °C 34462.7 hPa NE 16.6 km/h 16.6 km/h 45 % 0 mm
10:33 -6.8 °C -13.7 °C 34462.7 hPa ESE 15 km/h 15 km/h 45 % 0 mm
10:38 -6.7 °C -13.5 °C 34462.7 hPa ENE 11.9 km/h 11.9 km/h 45 % 0 mm
10:43 -6.6 °C -13.6 °C 34462.7 hPa SSE 15 km/h 15 km/h 44 % 0 mm
10:48 -6.6 °C -13.6 °C 34462.7 hPa ENE 17.9 km/h 17.9 km/h 44 % 0 mm
10:53 -6.6 °C -13.6 °C 34462.7 hPa ENE 15 km/h 15 km/h 44 % 0 mm
10:58 -6.6 °C -13.6 °C 34428.8 hPa NNE 15 km/h 15 km/h 44 % 0 mm
11:03 -6.6 °C -13.7 °C 34428.8 hPa ENE 15.3 km/h 15.3 km/h 44 % 0 mm
11:08 -6.4 °C -13.4 °C 34428.8 hPa ENE 11.6 km/h 11.6 km/h 44 % 0 mm
11:10 -6.6 °C -13.8 °C 34428.8 hPa NE 15 km/h 15 km/h 43 % 0 mm
11:15 -6.3 °C -13.3 °C 34462.7 hPa East 11.9 km/h 11.9 km/h 44 % 0 mm
11:20 -6.2 °C -13.2 °C 34462.7 hPa ENE 15 km/h 15 km/h 44 % 0 mm
11:25 -6.2 °C -13.4 °C 34462.7 hPa NE 20.9 km/h 20.9 km/h 43 % 0 mm
11:30 -6 °C -13.4 °C 34428.8 hPa NNE 20.9 km/h 20.9 km/h 42 % 0 mm
11:35 -5.8 °C -13.3 °C 34428.8 hPa ENE 15 km/h 15 km/h 42 % 0 mm
11:40 -5.9 °C -13.4 °C 34428.8 hPa SE 11.9 km/h 11.9 km/h 42 % 0 mm
11:45 -5.8 °C -13.3 °C 34462.7 hPa ESE 11.9 km/h 11.9 km/h 42 % 0 mm
11:50 -5.6 °C -13.1 °C 34462.7 hPa ESE 11.9 km/h 11.9 km/h 42 % 0 mm
11:55 -5.4 °C -12.9 °C 34462.7 hPa North 11.9 km/h 11.9 km/h 42 % 0 mm
12:00 -5.7 °C -13.2 °C 34428.8 hPa NE 16.1 km/h 16.1 km/h 42 % 0 mm
12:05 -5.6 °C -13.1 °C 34428.8 hPa NNE 9.3 km/h 9.3 km/h 42 % 0 mm
12:10 -5.2 °C -12.9 °C 34428.8 hPa ENE 12.2 km/h 12.2 km/h 41 % 0 mm
12:15 -4.9 °C -12.9 °C 34462.7 hPa West 15 km/h 15 km/h 40 % 0 mm
12:20 -4.9 °C -12.9 °C 34462.7 hPa SSE 9 km/h 9 km/h 40 % 0 mm
12:25 -4.7 °C -12.7 °C 34462.7 hPa SSE 9 km/h 9 km/h 40 % 0 mm
12:30 -4.7 °C -12.9 °C 34462.7 hPa ESE 9 km/h 9 km/h 39 % 0 mm
12:35 -4.7 °C -12.9 °C 34462.7 hPa ENE 6.8 km/h 7.6 km/h 39 % 0 mm
12:40 -4.4 °C -12.4 °C 34462.7 hPa NE 9 km/h 9 km/h 40 % 0 mm
12:45 -4.3 °C -12.6 °C 34462.7 hPa SSE 11.9 km/h 11.9 km/h 39 % 0 mm
12:50 -4.2 °C -12.4 °C 34462.7 hPa SW 11.9 km/h 11.9 km/h 39 % 0 mm
12:55 -4.4 °C -12.8 °C 34462.7 hPa North 6 km/h 6 km/h 38 % 0 mm
13:00 -4 °C -12.5 °C 34462.7 hPa East 15.3 km/h 15.3 km/h 38 % 0 mm
13:05 -4.2 °C -12.9 °C 34462.7 hPa ESE 15 km/h 15 km/h 37 % 0 mm
13:10 -4.3 °C -12.7 °C 34462.7 hPa NNE 17.9 km/h 17.9 km/h 38 % 0 mm
13:15 -4.2 °C -12.9 °C 34462.7 hPa East 11.9 km/h 11.9 km/h 37 % 0 mm
13:20 -3.7 °C -12.7 °C 34462.7 hPa SSW 14 km/h 14 km/h 36 % 0 mm
13:25 -3.7 °C -12.9 °C 34462.7 hPa SW 6 km/h 6 km/h 35 % 0 mm
13:30 -3.7 °C -12.9 °C 34462.7 hPa SW 9 km/h 9 km/h 35 % 0 mm
13:35 -3.3 °C -12.6 °C 34462.7 hPa WNW 9 km/h 9 km/h 35 % 0 mm
13:40 -3.6 °C -13 °C 34462.7 hPa WSW 17.9 km/h 17.9 km/h 34 % 0 mm
13:45 -3.7 °C -13.1 °C 34462.7 hPa West 9 km/h 9 km/h 34 % 0 mm
13:50 -3.8 °C -13.5 °C 34462.7 hPa South 11.9 km/h 11.9 km/h 33 % 0 mm
13:56 -3.7 °C -13.8 °C 34462.7 hPa NE 15 km/h 15 km/h 31 % 0 mm
14:01 -3.7 °C -13.7 °C 34462.7 hPa SW 11.9 km/h 11.9 km/h 32 % 0 mm
14:06 -3.6 °C -13.8 °C 34462.7 hPa ESE 15.6 km/h 15.6 km/h 31 % 0 mm
14:11 -3.8 °C -13.8 °C 34462.7 hPa NNE 9 km/h 9 km/h 32 % 0 mm
14:16 -3.6 °C -13.6 °C 34462.7 hPa WNW 11.9 km/h 11.9 km/h 32 % 0 mm
14:21 -3.4 °C -13.7 °C 34462.7 hPa East 11.9 km/h 11.9 km/h 31 % 0 mm
14:26 -3.6 °C -13.8 °C 34462.7 hPa South 11.9 km/h 11.9 km/h 31 % 0 mm
14:31 -3.4 °C -13.7 °C 34428.8 hPa WNW 9 km/h 9 km/h 31 % 0 mm
14:36 -3.2 °C -13.5 °C 34428.8 hPa WSW 8 km/h 8 km/h 31 % 0 mm
14:41 -3.3 °C -13.6 °C 34428.8 hPa WNW 9 km/h 9 km/h 31 % 0 mm
14:46 -3.5 °C -14 °C 34428.8 hPa NNE 8.5 km/h 8.5 km/h 30 % 0 mm
14:51 -3.4 °C -13.9 °C 34428.8 hPa ESE 7.6 km/h 7.6 km/h 30 % 0 mm
14:56 -3.7 °C -14.1 °C 34428.8 hPa ENE 9.3 km/h 9.3 km/h 30 % 0 mm
15:01 -3.7 °C -13.9 °C 34428.8 hPa ESE 15 km/h 15 km/h 31 % 0 mm
15:06 -4.1 °C -13.9 °C 34428.8 hPa ESE 15 km/h 15 km/h 32 % 0 mm
15:11 -4 °C -13.7 °C 34428.8 hPa ESE 27.2 km/h 27.2 km/h 33 % 0 mm
15:16 -4.4 °C -14 °C 34462.7 hPa ESE 32.8 km/h 32.8 km/h 33 % 0 mm
15:21 -4.6 °C -13.9 °C 34462.7 hPa ENE 26.9 km/h 26.9 km/h 34 % 0 mm
15:26 -4.7 °C -13.8 °C 34462.7 hPa ESE 27.7 km/h 27.7 km/h 35 % 0 mm
15:31 -4.8 °C -13.9 °C 34428.8 hPa East 26.9 km/h 26.9 km/h 35 % 0 mm
15:36 -4.8 °C -13.7 °C 34428.8 hPa ESE 27.2 km/h 27.2 km/h 36 % 0 mm
15:41 -4.8 °C -13.6 °C 34428.8 hPa East 17.9 km/h 17.9 km/h 36 % 0 mm
15:46 -4.8 °C -13.6 °C 34462.7 hPa East 17.9 km/h 17.9 km/h 36 % 0 mm
15:51 -4.9 °C -13.5 °C 34462.7 hPa SE 20.9 km/h 20.9 km/h 37 % 0 mm
15:56 -4.9 °C -13.5 °C 34462.7 hPa ENE 16.1 km/h 16.1 km/h 37 % 0 mm
16:01 -5 °C -13.6 °C 34462.7 hPa ESE 26.9 km/h 26.9 km/h 37 % 0 mm
16:06 -5.1 °C -13.4 °C 34462.7 hPa ESE 20.9 km/h 20.9 km/h 38 % 0 mm
16:11 -4.7 °C -13.4 °C 34462.7 hPa East 17.9 km/h 17.9 km/h 37 % 0 mm
16:16 -4.8 °C -13.4 °C 34462.7 hPa ESE 23.8 km/h 23.8 km/h 37 % 0 mm
16:21 -4.7 °C -13.4 °C 34462.7 hPa ESE 20.9 km/h 20.9 km/h 37 % 0 mm
16:26 -4.4 °C -12.9 °C 34462.7 hPa East 17.9 km/h 17.9 km/h 38 % 0 mm
16:31 -4.7 °C -13.1 °C 34462.7 hPa ENE 26.9 km/h 26.9 km/h 38 % 0 mm
16:36 -4.6 °C -13.2 °C 34462.7 hPa SE 20.9 km/h 20.9 km/h 37 % 0 mm
16:41 -4.6 °C -13.2 °C 34462.7 hPa ESE 27.7 km/h 27.7 km/h 37 % 0 mm
16:46 -4.8 °C -13.2 °C 34462.7 hPa ESE 23.8 km/h 23.8 km/h 38 % 0 mm
16:51 -4.9 °C -13.3 °C 34462.7 hPa East 23.8 km/h 23.8 km/h 38 % 0 mm
16:56 -4.8 °C -13.2 °C 34462.7 hPa ENE 15 km/h 15 km/h 38 % 0 mm
17:01 -4.9 °C -13.3 °C 34462.7 hPa ESE 20.9 km/h 20.9 km/h 38 % 0 mm
17:06 -4.9 °C -13.3 °C 34462.7 hPa ESE 15.6 km/h 15.6 km/h 38 % 0 mm
17:11 -4.9 °C -13.3 °C 34462.7 hPa ESE 23.8 km/h 23.8 km/h 38 % 0 mm
17:16 -5.1 °C -13.2 °C 34462.7 hPa NE 20.9 km/h 20.9 km/h 39 % 0 mm
17:21 -5 °C -13.4 °C 34462.7 hPa ENE 23.8 km/h 23.8 km/h 38 % 0 mm
17:26 -5.1 °C -13.2 °C 34462.7 hPa East 11.9 km/h 11.9 km/h 39 % 0 mm
17:31 -5.1 °C -13.3 °C 34462.7 hPa ENE 26.9 km/h 26.9 km/h 39 % 0 mm
17:36 -5.2 °C -13.4 °C 34462.7 hPa ESE 32.8 km/h 32.8 km/h 39 % 0 mm
17:41 -5.3 °C -13.4 °C 34462.7 hPa SSE 29.8 km/h 29.8 km/h 39 % 0 mm
17:46 -5.4 °C -13.5 °C 34462.7 hPa South 15 km/h 15 km/h 39 % 0 mm
17:51 -5.4 °C -13.6 °C 34462.7 hPa ESE 35.7 km/h 35.7 km/h 39 % 0 mm
17:56 -5.5 °C -13.4 °C 34462.7 hPa East 23.8 km/h 23.8 km/h 40 % 0 mm
18:01 -5.6 °C -13.4 °C 34462.7 hPa ESE 20.9 km/h 20.9 km/h 40 % 0 mm
18:06 -5.6 °C -13.4 °C 34462.7 hPa SE 26.9 km/h 26.9 km/h 40 % 0 mm
18:11 -5.6 °C -13.5 °C 34462.7 hPa NNE 20.9 km/h 20.9 km/h 40 % 0 mm
18:16 -5.6 °C -13.5 °C 34462.7 hPa ESE 23.8 km/h 23.8 km/h 40 % 0 mm
18:21 -5.8 °C -13.7 °C 34462.7 hPa NNE 25.4 km/h 25.4 km/h 40 % 0 mm
18:26 -5.8 °C -13.4 °C 34462.7 hPa ENE 17.9 km/h 17.9 km/h 41 % 0 mm
18:31 -5.9 °C -13.6 °C 34462.7 hPa ESE 20.9 km/h 20.9 km/h 41 % 0 mm
18:36 -6 °C -13.7 °C 34462.7 hPa East 15 km/h 15 km/h 41 % 0 mm
18:41 -6 °C -13.7 °C 34462.7 hPa East 17.9 km/h 17.9 km/h 41 % 0 mm
18:46 -6 °C -13.7 °C 34462.7 hPa NNE 20.9 km/h 20.9 km/h 41 % 0 mm
18:51 -6 °C -13.7 °C 34462.7 hPa WNW 11.9 km/h 11.9 km/h 41 % 0 mm
18:56 -6.1 °C -13.7 °C 34462.7 hPa East 19.6 km/h 19.6 km/h 41 % 0 mm
19:01 -6.1 °C -13.8 °C 34462.7 hPa NE 20.9 km/h 20.9 km/h 41 % 0 mm
19:06 -6.2 °C -13.6 °C 34462.7 hPa North 17.9 km/h 17.9 km/h 42 % 0 mm
19:11 -6.1 °C -13.6 °C 34496.6 hPa ENE 16.1 km/h 16.1 km/h 42 % 0 mm
19:16 -6.2 °C -13.7 °C 34496.6 hPa NE 17.9 km/h 17.9 km/h 42 % 0 mm
19:18 -6.2 °C -13.4 °C 34496.6 hPa NNE 11.9 km/h 11.9 km/h 43 % 0 mm
19:23 -6.3 °C -13.5 °C 34496.6 hPa NNE 18.3 km/h 18.3 km/h 43 % 0 mm
19:28 -6.3 °C -13.5 °C 34496.6 hPa East 20.9 km/h 20.9 km/h 43 % 0 mm
19:33 -6.3 °C -13.6 °C 34496.6 hPa North 15 km/h 15 km/h 43 % 0 mm
19:38 -6.3 °C -13.6 °C 34496.6 hPa ESE 15 km/h 15 km/h 43 % 0 mm
19:43 -6.4 °C -13.6 °C 34496.6 hPa NNE 20.9 km/h 20.9 km/h 43 % 0 mm
19:48 -6.4 °C -13.8 °C 34496.6 hPa ENE 17.9 km/h 17.9 km/h 42 % 0 mm
19:53 -6.4 °C -13.7 °C 34496.6 hPa NNE 17.9 km/h 17.9 km/h 43 % 0 mm
19:58 -6.5 °C -13.7 °C 34496.6 hPa NE 12.7 km/h 12.7 km/h 43 % 0 mm
20:03 -6.5 °C -13.7 °C 34496.6 hPa North 11.9 km/h 11.9 km/h 43 % 0 mm
20:08 -6.5 °C -13.5 °C 34496.6 hPa ENE 15 km/h 15 km/h 44 % 0 mm
20:13 -6.6 °C -13.6 °C 34496.6 hPa NE 15 km/h 15 km/h 44 % 0 mm
20:18 -6.6 °C -13.7 °C 34496.6 hPa ENE 15 km/h 15 km/h 44 % 0 mm
20:23 -6.6 °C -13.4 °C 34496.6 hPa East 20.9 km/h 20.9 km/h 45 % 0 mm
20:28 -6.6 °C -13.4 °C 34496.6 hPa East 15 km/h 15 km/h 45 % 0 mm
20:33 -6.6 °C -13.4 °C 34496.6 hPa ENE 11.9 km/h 11.9 km/h 45 % 0 mm
20:38 -6.7 °C -13.5 °C 34496.6 hPa ENE 11.9 km/h 11.9 km/h 45 % 0 mm
20:43 -6.7 °C -13.6 °C 34533.8 hPa ENE 15 km/h 15 km/h 45 % 0 mm
20:48 -6.7 °C -13.4 °C 34533.8 hPa ENE 15 km/h 15 km/h 46 % 0 mm
20:53 -6.7 °C -13.4 °C 34533.8 hPa ESE 15 km/h 15 km/h 46 % 0 mm
20:58 -6.7 °C -13.4 °C 34496.6 hPa NNE 10.3 km/h 10.3 km/h 46 % 0 mm
21:03 -6.8 °C -13.4 °C 34496.6 hPa ENE 15 km/h 15 km/h 46 % 0 mm
21:08 -6.8 °C -13.4 °C 34496.6 hPa ENE 9 km/h 9 km/h 46 % 0 mm
21:13 -6.8 °C -13.4 °C 34533.8 hPa ENE 9 km/h 9 km/h 46 % 0 mm
21:18 -6.8 °C -13.3 °C 34533.8 hPa North 9 km/h 9 km/h 47 % 0 mm
21:23 -6.8 °C -13.3 °C 34533.8 hPa NNE 9 km/h 9 km/h 47 % 0 mm
21:28 -6.9 °C -13.3 °C 34533.8 hPa NE 11.9 km/h 11.9 km/h 47 % 0 mm
21:33 -6.9 °C -13.3 °C 34533.8 hPa East 11.9 km/h 11.9 km/h 47 % 0 mm
21:38 -6.9 °C -13.3 °C 34533.8 hPa ENE 9.3 km/h 9.3 km/h 47 % 0 mm
21:43 -6.9 °C -13.4 °C 34533.8 hPa NE 9.3 km/h 9.3 km/h 47 % 0 mm
21:48 -6.9 °C -13.4 °C 34533.8 hPa ENE 9.8 km/h 9.8 km/h 47 % 0 mm
21:53 -6.9 °C -13.4 °C 34533.8 hPa North 7.6 km/h 7.6 km/h 47 % 0 mm
21:58 -6.9 °C -13.4 °C 34533.8 hPa ESE 11.9 km/h 11.9 km/h 47 % 0 mm
22:03 -6.9 °C -13.2 °C 34533.8 hPa ESE 11.9 km/h 11.9 km/h 48 % 0 mm
22:08 -6.9 °C -13.4 °C 34533.8 hPa ENE 6 km/h 6 km/h 47 % 0 mm
22:13 -7 °C -13.3 °C 34533.8 hPa ENE 9 km/h 9 km/h 48 % 0 mm
22:18 -7 °C -13.3 °C 34533.8 hPa East 9 km/h 9 km/h 48 % 0 mm
22:23 -7 °C -13.3 °C 34533.8 hPa ENE 9 km/h 9 km/h 48 % 0 mm
22:28 -7.1 °C -13.3 °C 34533.8 hPa East 6 km/h 6 km/h 48 % 0 mm
22:33 -7.1 °C -13.3 °C 34533.8 hPa ENE 6.3 km/h 6.3 km/h 48 % 0 mm
22:38 -7.1 °C -13.3 °C 34533.8 hPa East 6 km/h 6 km/h 48 % 0 mm
22:43 -7.1 °C -13.3 °C 34533.8 hPa NE 6 km/h 6 km/h 48 % 0 mm
22:48 -7.1 °C -13.4 °C 34533.8 hPa ENE 6 km/h 6 km/h 48 % 0 mm
22:53 -7.1 °C -13.4 °C 34533.8 hPa NE 6 km/h 6 km/h 48 % 0 mm
22:58 -7.1 °C -13.4 °C 34533.8 hPa NE 3.1 km/h   48 % 0 mm
23:03 -7.1 °C -13.4 °C 34533.8 hPa NE 3.7 km/h 3.7 km/h 48 % 0 mm
23:08 -7.1 °C -13.4 °C 34533.8 hPa Calm     48 % 0 mm
23:13 -7.2 °C -13.3 °C 34567.7 hPa NNE 3.1 km/h   49 % 0 mm
23:18 -7.2 °C -13.3 °C 34567.7 hPa East 5.1 km/h 5.1 km/h 49 % 0 mm
23:23 -7.2 °C -13.3 °C 34567.7 hPa Calm     49 % 0 mm
23:28 -7.2 °C -13.3 °C 34567.7 hPa WNW 3.1 km/h 3.1 km/h 49 % 0 mm
23:33 -7.2 °C -13.3 °C 34567.7 hPa Calm     49 % 0 mm
23:38 -7.2 °C -13.3 °C 34567.7 hPa Calm     49 % 0 mm
23:43 -7.2 °C -13.3 °C 34567.7 hPa Calm     49 % 0 mm
23:48 -7.2 °C -13.3 °C 34567.7 hPa NNE 3.1 km/h   49 % 0 mm
23:53 -7.2 °C -13.3 °C 34567.7 hPa Calm     49 % 0 mm
23:58 -7.2 °C -13.3 °C 34533.8 hPa NNE 6 km/h 6 km/h 49 % 0 mm
Meteo Sesrovires
Elogis d' Weather Underground - 1.5 mb

Guio original per  Jim McMurry - jmcmurry@mwt.net Adaptat per a la plantilla per  Wim van der Kuil - Leuven-Template.eu

Trobareu la nostra informacio del temps tambe a:

Weather Underground

AWEKAS